createdAt,value
2018-12-02T00:00:20.151Z,20.70
2018-12-02T00:02:47.939Z,19.17
2018-12-02T00:05:15.974Z,19.73
2018-12-02T00:07:43.844Z,17.77
2018-12-02T00:10:13.915Z,21.23
2018-12-02T00:12:41.618Z,20.40
2018-12-02T00:15:13.096Z,17.97
2018-12-02T00:17:40.829Z,20.90
2018-12-02T00:20:13.517Z,19.47
2018-12-02T00:22:41.437Z,21.13
2018-12-02T00:25:11.651Z,20.20
2018-12-02T00:27:39.765Z,20.57
2018-12-02T00:30:21.147Z,19.33
2018-12-02T00:32:48.865Z,20.07
2018-12-02T00:35:17.534Z,19.20
2018-12-02T00:37:51.630Z,21.00
2018-12-02T00:40:20.722Z,18.00
2018-12-02T00:42:59.567Z,18.10
2018-12-02T00:45:30.067Z,19.30
2018-12-02T00:47:57.721Z,19.73
2018-12-02T00:50:25.502Z,18.48
2018-12-02T00:52:56.876Z,17.92
2018-12-02T00:55:31.511Z,19.70
2018-12-02T00:57:59.189Z,18.40
2018-12-02T01:00:26.874Z,16.90
2018-12-02T01:02:54.717Z,16.42
2018-12-02T01:05:22.834Z,16.52
2018-12-02T01:07:50.545Z,17.25
2018-12-02T01:10:20.593Z,16.52
2018-12-02T01:12:49.954Z,15.37
2018-12-02T01:15:19.461Z,16.13
2018-12-02T01:17:47.216Z,14.77
2018-12-02T01:20:16.281Z,16.03
2018-12-02T01:22:44.154Z,16.40
2018-12-02T01:25:13.012Z,17.43
2018-12-02T01:27:47.445Z,16.10
2018-12-02T01:30:18.130Z,17.07
2018-12-02T01:32:45.860Z,17.03
2018-12-02T01:35:14.917Z,15.10
2018-12-02T01:37:42.784Z,14.80
2018-12-02T01:40:13.052Z,14.83
2018-12-02T01:42:41.499Z,14.50
2018-12-02T01:45:12.828Z,16.50
2018-12-02T01:47:40.568Z,17.93
2018-12-02T01:50:13.589Z,14.93
2018-12-02T01:52:42.200Z,15.10
2018-12-02T01:55:17.688Z,14.87
2018-12-02T01:57:45.355Z,15.03
2018-12-02T02:00:24.951Z,16.27
2018-12-02T02:02:53.437Z,17.67
2018-12-02T02:05:22.239Z,16.93
2018-12-02T02:07:49.892Z,16.33
2018-12-02T02:10:21.854Z,16.50
2018-12-02T02:12:49.806Z,16.23
2018-12-02T02:15:17.772Z,18.57
2018-12-02T02:17:46.414Z,18.10
2018-12-02T02:20:18.080Z,17.83
2018-12-02T02:22:46.525Z,17.20
2018-12-02T02:25:15.611Z,17.23
2018-12-02T02:27:45.979Z,15.00
2018-12-02T02:30:18.229Z,15.73
2018-12-02T02:32:45.910Z,15.67
2018-12-02T02:35:14.497Z,17.50
2018-12-02T02:37:43.192Z,16.20
2018-12-02T02:40:13.687Z,17.33
2018-12-02T02:42:41.339Z,18.40
2018-12-02T02:45:11.059Z,18.70
2018-12-02T02:47:38.763Z,18.07
2018-12-02T02:50:20.971Z,16.03
2018-12-02T02:52:54.114Z,18.37
2018-12-02T02:55:21.778Z,18.00
2018-12-02T02:57:49.467Z,18.80
2018-12-02T03:00:18.899Z,17.92
2018-12-02T03:02:46.562Z,18.17
2018-12-02T03:05:15.024Z,18.05
2018-12-02T03:07:42.790Z,18.73
2018-12-02T03:10:13.853Z,17.70
2018-12-02T03:12:42.373Z,15.83
2018-12-02T03:15:11.754Z,15.77
2018-12-02T03:17:39.539Z,14.47
2018-12-02T03:20:10.177Z,17.00
2018-12-02T03:22:37.982Z,16.33
2018-12-02T03:25:10.754Z,16.83
2018-12-02T03:27:38.488Z,16.00
2018-12-02T03:30:12.591Z,16.20
2018-12-02T03:32:40.460Z,16.60
2018-12-02T03:35:11.537Z,15.50
2018-12-02T03:37:39.210Z,17.27
2018-12-02T03:40:13.215Z,15.40
2018-12-02T03:42:40.875Z,15.20
2018-12-02T03:45:11.481Z,15.80
2018-12-02T03:47:39.181Z,16.50
2018-12-02T03:50:17.450Z,14.80
2018-12-02T03:52:42.147Z,15.27
2018-12-02T03:55:09.910Z,15.40
2018-12-02T03:57:37.604Z,14.10
2018-12-02T04:00:19.889Z,13.68
2018-12-02T04:02:47.990Z,12.73
2018-12-02T04:05:17.131Z,13.70
2018-12-02T04:07:44.796Z,14.77
2018-12-02T04:10:14.752Z,12.95
2018-12-02T04:12:42.629Z,13.30
2018-12-02T04:15:13.256Z,13.30
2018-12-02T04:17:41.634Z,12.50
2018-12-02T04:20:12.069Z,14.57
2018-12-02T04:22:40.004Z,13.93
2018-12-02T04:25:11.349Z,13.03
2018-12-02T04:27:39.053Z,12.60
2018-12-02T04:30:13.117Z,13.90
2018-12-02T04:32:40.800Z,14.87
2018-12-02T04:35:19.725Z,13.13
2018-12-02T04:37:47.381Z,14.27
2018-12-02T04:40:15.002Z,13.88
2018-12-02T04:42:42.686Z,13.40
2018-12-02T04:45:18.463Z,15.50
2018-12-02T04:47:46.251Z,14.57
2018-12-02T04:50:16.247Z,12.40
2018-12-02T04:52:43.930Z,14.07
2018-12-02T04:55:11.673Z,14.23
2018-12-02T04:57:39.369Z,14.23
2018-12-02T05:00:15.242Z,15.53
2018-12-02T05:02:47.065Z,14.03
2018-12-02T05:05:18.498Z,14.00
2018-12-02T05:07:46.159Z,12.03
2018-12-02T05:10:18.109Z,14.65
2018-12-02T05:12:46.054Z,13.90
2018-12-02T05:15:15.218Z,13.37
2018-12-02T05:17:42.949Z,12.93
2018-12-02T05:20:17.601Z,14.73
2018-12-02T05:22:45.267Z,13.47
2018-12-02T05:25:17.524Z,13.60
2018-12-02T05:27:42.776Z,12.93
2018-12-02T05:30:18.982Z,12.53
2018-12-02T05:32:51.026Z,13.70
2018-12-02T05:35:18.705Z,14.73
2018-12-02T05:37:46.364Z,12.20
2018-12-02T05:40:18.617Z,14.35
2018-12-02T05:42:46.310Z,14.57
2018-12-02T05:45:15.297Z,12.90
2018-12-02T05:47:43.184Z,14.10
2018-12-02T05:50:15.334Z,12.93
2018-12-02T05:52:43.904Z,12.27
2018-12-02T05:55:13.085Z,12.93
2018-12-02T05:57:41.040Z,12.93
2018-12-02T06:00:13.548Z,13.77
2018-12-02T06:02:41.245Z,12.43
2018-12-02T06:05:10.511Z,13.40
2018-12-02T06:07:38.213Z,12.80
2018-12-02T06:10:13.440Z,14.20
2018-12-02T06:12:41.205Z,14.03
2018-12-02T06:15:11.353Z,14.60
2018-12-02T06:17:39.348Z,15.03
2018-12-02T06:20:18.210Z,14.13
2018-12-02T06:22:47.324Z,16.80
2018-12-02T06:25:15.090Z,13.27
2018-12-02T06:27:42.979Z,13.70
2018-12-02T06:30:14.146Z,13.37
2018-12-02T06:32:41.823Z,13.40
2018-12-02T06:35:11.331Z,13.83
2018-12-02T06:37:38.978Z,13.77
2018-12-02T06:40:19.505Z,11.83
2018-12-02T06:42:47.433Z,12.20
2018-12-02T06:45:15.227Z,11.43
2018-12-02T06:47:42.963Z,10.67
2018-12-02T06:50:27.413Z,12.03
2018-12-02T06:52:56.416Z,12.30
2018-12-02T06:55:53.063Z,11.70
2018-12-02T06:58:45.101Z,10.60
2018-12-02T07:01:38.154Z,11.40
2018-12-02T07:04:13.889Z,10.80
2018-12-02T07:06:41.551Z,11.07
2018-12-02T07:09:09.361Z,10.60
2018-12-02T07:11:37.109Z,11.60
2018-12-02T07:14:04.974Z,11.20
2018-12-02T07:16:32.692Z,11.70
2018-12-02T07:19:05.899Z,10.53
2018-12-02T07:21:36.762Z,10.37
2018-12-02T07:24:08.350Z,12.43
2018-12-02T07:26:38.982Z,10.30
2018-12-02T07:29:06.611Z,10.73
2018-12-02T07:31:34.274Z,11.35
2018-12-02T07:34:02.771Z,11.57
2018-12-02T07:36:30.415Z,10.50
2018-12-02T07:40:12.159Z,9.88
2018-12-02T07:42:39.867Z,9.93
2018-12-02T07:45:07.543Z,11.70
2018-12-02T07:47:35.281Z,12.33
2018-12-02T07:50:03.792Z,10.03
2018-12-02T07:52:31.522Z,10.00
2018-12-02T07:54:59.185Z,12.07
2018-12-02T07:57:26.803Z,11.65
2018-12-02T07:59:54.560Z,11.37
2018-12-02T08:02:22.198Z,11.80
2018-12-02T08:04:49.860Z,12.37
2018-12-02T08:07:23.993Z,10.80
2018-12-02T08:12:44.895Z,9.90
2018-12-02T08:15:27.222Z,10.73
2018-12-02T08:17:54.877Z,10.57
2018-12-02T08:20:22.567Z,10.10
2018-12-02T08:22:51.562Z,9.58
2018-12-02T08:25:18.846Z,9.90
2018-12-02T08:27:47.228Z,11.33
2018-12-02T08:30:21.530Z,12.50
2018-12-02T08:32:49.225Z,11.90
2018-12-02T08:35:18.608Z,12.30
2018-12-02T08:37:49.232Z,13.33
2018-12-02T08:40:16.947Z,12.00
2018-12-02T08:42:44.707Z,11.57
2018-12-02T08:45:14.887Z,10.28
2018-12-02T08:47:43.780Z,10.77
2018-12-02T08:50:17.018Z,10.03
2018-12-02T08:52:45.982Z,10.47
2018-12-02T08:55:17.183Z,9.57
2018-12-02T08:57:45.457Z,8.67
2018-12-02T09:00:15.777Z,9.57
2018-12-02T09:02:45.481Z,8.77
2018-12-02T09:05:14.166Z,9.00
2018-12-02T09:07:42.557Z,8.07
2018-12-02T09:10:19.945Z,8.00
2018-12-02T09:12:50.268Z,9.43
2018-12-02T09:15:17.959Z,9.80
2018-12-02T09:17:45.911Z,9.03
2018-12-02T09:20:17.890Z,8.90
2018-12-02T09:22:45.595Z,8.73
2018-12-02T09:25:14.413Z,8.50
2018-12-02T09:27:42.109Z,9.00
2018-12-02T09:30:14.937Z,11.13
2018-12-02T09:32:43.349Z,10.23
2018-12-02T09:35:11.274Z,10.07
2018-12-02T09:37:39.037Z,10.40
2018-12-02T09:40:11.756Z,8.83
2018-12-02T09:42:40.905Z,10.20
2018-12-02T09:45:11.585Z,9.17
2018-12-02T09:47:39.317Z,10.93
2018-12-02T09:50:09.425Z,10.30
2018-12-02T09:52:37.943Z,10.13
2018-12-02T09:55:12.054Z,9.97
2018-12-02T09:57:39.720Z,10.30
2018-12-02T10:00:13.752Z,9.25
2018-12-02T10:02:41.471Z,10.17
2018-12-02T10:05:09.671Z,10.23
2018-12-02T10:07:37.972Z,11.03
2018-12-02T10:10:14.860Z,11.63
2018-12-02T10:12:46.176Z,10.17
2018-12-02T10:15:15.020Z,10.33
2018-12-02T10:17:54.082Z,9.60
2018-12-02T10:20:22.426Z,8.77
2018-12-02T10:22:50.097Z,8.83
2018-12-02T10:25:18.684Z,9.40
2018-12-02T10:27:47.239Z,8.80
2018-12-02T10:30:17.792Z,9.60
2018-12-02T10:32:47.935Z,9.67
2018-12-02T10:35:17.384Z,8.93
2018-12-02T10:37:46.034Z,9.00
2018-12-02T10:40:20.613Z,7.87
2018-12-02T10:42:48.945Z,9.30
2018-12-02T10:45:20.132Z,8.40
2018-12-02T10:47:49.073Z,8.00
2018-12-02T10:50:40.769Z,7.50
2018-12-02T10:53:20.680Z,8.07
2018-12-02T10:55:57.907Z,7.50
2018-12-02T10:58:28.569Z,7.57
2018-12-02T11:01:05.622Z,7.40
2018-12-02T11:03:33.458Z,7.70
2018-12-02T11:06:02.831Z,8.50
2018-12-02T11:08:30.941Z,8.97
2018-12-02T11:11:00.609Z,8.90
2018-12-02T11:13:28.526Z,8.47
2018-12-02T11:15:58.265Z,9.57
2018-12-02T11:18:26.157Z,9.67
2018-12-02T11:20:54.247Z,8.87
2018-12-02T11:23:23.136Z,9.03
2018-12-02T11:25:52.254Z,9.67
2018-12-02T11:28:20.518Z,10.67
2018-12-02T11:30:48.315Z,9.67
2018-12-02T11:33:16.038Z,10.97
2018-12-02T11:35:44.298Z,11.40
2018-12-02T11:38:11.979Z,10.37
2018-12-02T11:40:40.770Z,12.00
2018-12-02T11:43:09.525Z,12.50
2018-12-02T11:45:37.494Z,11.80
2018-12-02T11:48:07.246Z,12.00
2018-12-02T11:50:35.188Z,10.70
2018-12-02T11:53:02.846Z,11.60
2018-12-02T11:55:30.537Z,11.83
2018-12-02T11:57:58.261Z,10.20
2018-12-02T12:00:27.972Z,11.77
2018-12-02T12:02:57.404Z,12.10
2018-12-02T12:05:25.278Z,12.17
2018-12-02T12:07:53.592Z,11.60
2018-12-02T12:10:25.774Z,14.23
2018-12-02T12:12:58.194Z,13.50
2018-12-02T12:16:56.249Z,12.83
2018-12-02T12:19:24.193Z,12.17
2018-12-02T12:21:52.008Z,13.23
2018-12-02T12:24:19.796Z,12.20
2018-12-02T12:26:47.660Z,12.30
2018-12-02T12:29:15.490Z,13.53
2018-12-02T12:31:43.195Z,13.30
2018-12-02T12:34:12.570Z,12.40
2018-12-02T12:36:40.753Z,13.80
2018-12-02T12:39:09.779Z,15.57
2018-12-02T12:41:37.580Z,16.20
2018-12-02T12:44:09.867Z,15.53
2018-12-02T12:46:44.437Z,14.57
2018-12-02T12:49:13.516Z,13.03
2018-12-02T12:51:41.240Z,12.57
2018-12-02T12:54:09.609Z,13.63
2018-12-02T12:56:38.278Z,12.47
2018-12-02T12:59:05.933Z,12.03
2018-12-02T13:01:33.586Z,10.60
2018-12-02T13:04:01.351Z,10.70
2018-12-02T13:06:29.067Z,11.40
2018-12-02T13:08:56.688Z,9.90
2018-12-02T13:11:25.684Z,10.47
2018-12-02T13:13:53.536Z,9.73
2018-12-02T13:16:21.548Z,10.93
2018-12-02T13:18:49.261Z,9.30
2018-12-02T13:21:17.083Z,9.73
2018-12-02T13:23:45.711Z,9.25
2018-12-02T13:26:13.441Z,9.10
2018-12-02T13:28:42.896Z,7.80
2018-12-02T13:31:11.587Z,9.00
2018-12-02T13:33:39.310Z,8.07
2018-12-02T13:36:12.382Z,8.47
2018-12-02T13:38:40.473Z,7.70
2018-12-02T13:41:08.236Z,6.83
2018-12-02T13:43:36.713Z,6.80
2018-12-02T13:46:04.770Z,6.33
2018-12-02T13:48:32.559Z,7.73
2018-12-02T13:51:00.780Z,7.40
2018-12-02T13:53:30.109Z,6.83
2018-12-02T13:55:57.873Z,7.37
2018-12-02T13:58:25.559Z,7.30
2018-12-02T14:00:53.299Z,7.80
2018-12-02T14:03:25.798Z,8.58
2018-12-02T14:05:53.746Z,8.17
2018-12-02T14:08:21.409Z,7.93
2018-12-02T14:10:49.067Z,8.18
2018-12-02T14:13:23.723Z,9.20
2018-12-02T14:17:06.445Z,8.77
2018-12-02T14:19:34.512Z,8.80
2018-12-02T14:22:02.259Z,9.80
2018-12-02T14:24:30.154Z,11.40
2018-12-02T14:26:57.893Z,10.30
2018-12-02T14:29:33.711Z,10.55
2018-12-02T14:32:05.931Z,10.80
2018-12-02T14:34:33.804Z,12.80
2018-12-02T14:37:01.581Z,10.00
2018-12-02T14:39:29.213Z,10.30
2018-12-02T14:41:56.929Z,9.98
2018-12-02T14:44:26.541Z,9.35
2018-12-02T14:46:54.513Z,9.70
2018-12-02T14:49:22.916Z,9.37
2018-12-02T14:51:50.822Z,9.37
2018-12-02T14:54:19.400Z,10.20
2018-12-02T14:56:47.090Z,8.80
2018-12-02T14:59:17.626Z,8.30
2018-12-02T15:01:45.414Z,8.63
2018-12-02T15:04:13.592Z,8.07
2018-12-02T15:06:42.343Z,7.60
2018-12-02T15:09:10.925Z,9.33
2018-12-02T15:11:38.711Z,8.23
2018-12-02T15:14:13.129Z,8.90
2018-12-02T15:16:41.685Z,8.90
2018-12-02T15:19:11.198Z,8.70
2018-12-02T15:21:38.978Z,9.80
2018-12-02T15:24:10.678Z,10.37
2018-12-02T15:26:39.386Z,8.30
2018-12-02T15:29:07.145Z,10.50
2018-12-02T15:31:35.041Z,10.03
2018-12-02T15:34:03.412Z,11.40
2018-12-02T15:36:32.148Z,11.20
2018-12-02T15:39:00.603Z,11.60
2018-12-02T15:41:28.488Z,11.17
2018-12-02T15:43:56.763Z,10.70
2018-12-02T15:46:24.564Z,12.63
2018-12-02T15:48:52.461Z,11.77
2018-12-02T15:51:20.668Z,11.90
2018-12-02T15:53:53.099Z,11.87
2018-12-02T15:56:21.110Z,11.63
2018-12-02T15:58:49.879Z,12.03
2018-12-02T16:01:18.086Z,12.57
2018-12-02T16:03:48.003Z,13.67
2018-12-02T16:06:16.601Z,11.80
2018-12-02T16:08:44.506Z,11.70
2018-12-02T16:11:12.329Z,12.07
2018-12-02T16:13:41.046Z,12.10
2018-12-02T16:16:08.929Z,13.30
2018-12-02T16:18:36.914Z,12.60
2018-12-02T16:21:06.260Z,13.67
2018-12-02T16:23:34.122Z,11.30
2018-12-02T16:26:01.921Z,13.63
2018-12-02T16:28:30.716Z,13.43
2018-12-02T16:30:59.940Z,13.33
2018-12-02T16:33:27.813Z,14.03
2018-12-02T16:36:00.447Z,16.37
2018-12-02T16:38:28.222Z,14.30
2018-12-02T16:40:55.912Z,18.23
2018-12-02T16:43:28.886Z,16.32
2018-12-02T16:45:57.561Z,16.97
2018-12-02T16:48:26.315Z,18.57
2018-12-02T16:50:54.433Z,16.83
2018-12-02T16:53:27.064Z,17.90
2018-12-02T16:56:04.429Z,17.70
2018-12-02T16:59:11.996Z,16.83
2018-12-02T17:04:23.555Z,17.47
2018-12-02T17:06:51.902Z,16.90
2018-12-02T17:09:20.068Z,16.93
2018-12-02T17:11:48.121Z,17.87
2018-12-02T17:14:15.886Z,17.63
2018-12-02T17:16:43.523Z,19.23
2018-12-02T17:19:11.203Z,18.17
2018-12-02T17:21:39.476Z,21.10
2018-12-02T17:24:09.116Z,18.15
2018-12-02T17:26:37.155Z,19.00
2018-12-02T17:29:08.338Z,18.00
2018-12-02T17:31:43.591Z,20.90
2018-12-02T17:34:12.098Z,17.93
2018-12-02T17:36:40.725Z,15.40
2018-12-02T17:39:16.286Z,16.43
2018-12-02T17:41:47.790Z,18.47
2018-12-02T17:44:15.648Z,18.20
2018-12-02T17:49:21.557Z,15.63
2018-12-02T17:51:49.173Z,16.80
2018-12-02T17:54:16.909Z,17.32
2018-12-02T17:56:45.441Z,15.38
2018-12-02T17:59:14.429Z,16.00
2018-12-02T18:01:42.932Z,16.63
2018-12-02T18:04:11.355Z,17.13
2018-12-02T18:06:39.588Z,15.60
2018-12-02T18:09:10.591Z,17.00
2018-12-02T18:11:38.542Z,14.37
2018-12-02T18:14:06.529Z,15.50
2018-12-02T18:16:35.140Z,16.70
2018-12-02T18:19:02.957Z,14.97
2018-12-02T18:21:31.382Z,14.77
2018-12-02T18:23:59.382Z,14.60
2018-12-02T18:26:27.089Z,14.70
2018-12-02T18:28:55.267Z,13.73
2018-12-02T18:31:22.970Z,14.83
2018-12-02T18:33:51.618Z,15.57
2018-12-02T18:36:27.055Z,14.67
2018-12-02T18:38:55.027Z,14.50
2018-12-02T18:41:34.082Z,11.97
2018-12-02T18:44:01.961Z,15.13
2018-12-02T18:46:29.834Z,13.63
2018-12-02T18:48:57.903Z,13.20
2018-12-02T18:51:25.630Z,13.37
2018-12-02T18:53:54.707Z,14.13
2018-12-02T18:56:23.189Z,13.87
2018-12-02T18:58:51.952Z,12.00
2018-12-02T19:01:20.319Z,13.53
2018-12-02T19:03:48.022Z,12.83
2018-12-02T19:06:17.557Z,12.33
2018-12-02T19:08:45.308Z,12.97
2018-12-02T19:11:14.603Z,14.60
2018-12-02T19:13:43.679Z,13.10
2018-12-02T19:16:10.446Z,13.30
2018-12-02T19:18:38.806Z,12.50
2018-12-02T19:21:14.086Z,13.30
2018-12-02T19:23:42.062Z,12.90
2018-12-02T19:26:09.730Z,12.50
2018-12-02T19:28:37.598Z,12.23
2018-12-02T19:31:05.377Z,10.88
2018-12-02T19:33:33.354Z,13.05
2018-12-02T19:36:21.033Z,12.33
2018-12-02T19:38:48.696Z,12.30
2018-12-02T19:41:16.477Z,11.20
2018-12-02T19:43:44.742Z,12.30
2018-12-02T19:46:12.050Z,11.95
2018-12-02T19:48:39.777Z,13.00
2018-12-02T19:51:07.439Z,12.40
2018-12-02T19:53:35.849Z,12.60
2018-12-02T19:56:03.527Z,11.55
2018-12-02T19:58:31.407Z,11.70
2018-12-02T20:00:59.109Z,10.68
2018-12-02T20:03:26.853Z,11.93
2018-12-02T20:05:54.763Z,12.77
2018-12-02T20:08:22.525Z,11.73
2018-12-02T20:10:54.534Z,12.97
2018-12-02T20:13:23.342Z,13.17
2018-12-02T20:15:57.833Z,13.47
2018-12-02T20:18:26.094Z,11.20
2018-12-02T20:20:57.950Z,11.83
2018-12-02T20:23:32.548Z,11.57
2018-12-02T20:26:01.803Z,13.30
2018-12-02T20:28:34.275Z,11.97
2018-12-02T20:31:06.429Z,11.80
2018-12-02T20:33:34.773Z,11.20
2018-12-02T20:36:02.499Z,11.47
2018-12-02T20:38:30.149Z,11.73
2018-12-02T20:40:57.882Z,11.78
2018-12-02T20:43:25.620Z,11.43
2018-12-02T20:45:53.306Z,13.10
2018-12-02T20:48:20.994Z,11.50
2018-12-02T20:50:48.734Z,11.43
2018-12-02T20:53:16.428Z,12.10
2018-12-02T20:55:44.133Z,11.63
2018-12-02T20:58:11.845Z,11.75
2018-12-02T21:00:39.512Z,10.33
2018-12-02T21:03:10.174Z,14.00
2018-12-02T21:05:41.017Z,13.93
2018-12-02T21:08:08.779Z,11.83
2018-12-02T21:10:36.535Z,11.60
2018-12-02T21:13:04.286Z,11.28
2018-12-02T21:15:32.045Z,11.93
2018-12-02T21:18:00.023Z,10.65
2018-12-02T21:20:27.669Z,13.35
2018-12-02T21:22:55.337Z,12.03
2018-12-02T21:25:25.738Z,11.30
2018-12-02T21:27:53.450Z,12.13
2018-12-02T21:30:26.235Z,11.93
2018-12-02T21:32:53.939Z,12.60
2018-12-02T21:35:21.618Z,12.13
2018-12-02T21:37:51.165Z,12.43
2018-12-02T21:40:18.863Z,11.63
2018-12-02T21:42:46.511Z,11.60
2018-12-02T21:45:15.891Z,11.15
2018-12-02T21:47:49.518Z,12.43
2018-12-02T21:50:33.850Z,13.40
2018-12-02T21:53:01.711Z,13.37
2018-12-02T21:55:29.404Z,13.17
2018-12-02T21:57:57.065Z,12.53
2018-12-02T22:00:31.426Z,13.22
2018-12-02T22:02:59.117Z,12.13
2018-12-02T22:05:26.838Z,12.80
2018-12-02T22:07:54.559Z,12.43
2018-12-02T22:10:30.055Z,12.10
2018-12-02T22:12:57.213Z,11.00
2018-12-02T22:15:25.117Z,12.40
2018-12-02T22:17:52.817Z,12.50
2018-12-02T22:20:20.533Z,11.18
2018-12-02T22:22:48.274Z,11.33
2018-12-02T22:25:18.569Z,10.93
2018-12-02T22:27:48.143Z,10.10
2018-12-02T22:30:17.501Z,10.47
2018-12-02T22:32:45.617Z,10.50
2018-12-02T22:35:14.452Z,9.67
2018-12-02T22:37:43.182Z,11.60
2018-12-02T22:40:23.030Z,10.90
2018-12-02T22:42:52.083Z,11.57
2018-12-02T22:45:25.956Z,11.47
2018-12-02T22:47:53.704Z,10.93
2018-12-02T22:50:24.874Z,12.83
2018-12-02T22:52:54.289Z,10.37
2018-12-02T22:55:22.038Z,10.83
2018-12-02T22:57:49.689Z,10.73
2018-12-02T23:00:31.018Z,11.83
2018-12-02T23:03:09.114Z,11.57
2018-12-02T23:05:36.902Z,11.20
2018-12-02T23:08:05.063Z,11.83
2018-12-02T23:10:32.735Z,11.40
2018-12-02T23:13:00.449Z,12.53
2018-12-02T23:15:28.207Z,11.53
2018-12-02T23:17:55.950Z,11.30
2018-12-02T23:20:23.750Z,11.40
2018-12-02T23:22:51.479Z,9.63
2018-12-02T23:25:19.314Z,12.03
2018-12-02T23:27:47.066Z,11.07
2018-12-02T23:30:18.635Z,12.10
2018-12-02T23:32:46.472Z,12.07
2018-12-02T23:35:14.235Z,10.40
2018-12-02T23:37:41.956Z,11.10
2018-12-02T23:40:20.520Z,10.90
2018-12-02T23:42:48.237Z,10.80
2018-12-02T23:45:16.609Z,9.70
2018-12-02T23:47:44.248Z,12.13
2018-12-02T23:50:14.504Z,10.55
2018-12-02T23:52:42.200Z,11.93
2018-12-02T23:55:12.217Z,11.17
2018-12-02T23:57:39.907Z,11.40
